Time;durP1;ratioP1;P1;durP2;ratioP2;P2;SDS_P1;SDS_P2;PMS_P1;PMS_P2;Temp;Humidity;BMP_temperature;BMP_pressure;BME280_temperature;BME280_humidity;BME280_pressure;Samples;Min_cycle;Max_cycle;Signal;HPM_P1;HPM_P2
2022/06/19 00:00:08;;;;;;;4.78;3.03;;;;;;;20.21;71.05;100398.97;6029768;28;20066;-68
2022/06/19 00:03:07;;;;;;;6.75;2.40;;;;;;;20.10;71.60;100392.41;6033542;28;20057;-67
2022/06/19 00:06:02;;;;;;;5.47;2.58;;;;;;;20.13;71.39;100392.00;6025882;28;20038;-68
2022/06/19 00:08:58;;;;;;;5.47;2.13;;;;;;;19.99;71.97;100387.72;6041538;28;20077;-67
2022/06/19 00:11:55;;;;;;;4.23;1.97;;;;;;;19.92;72.15;100389.59;6026218;28;20470;-67
2022/06/19 00:14:50;;;;;;;5.00;1.75;;;;;;;19.99;71.23;100376.94;6026022;28;20042;-68
2022/06/19 00:17:45;;;;;;;4.43;1.90;;;;;;;19.95;71.40;100383.78;6023349;28;20061;-68
2022/06/19 00:20:41;;;;;;;3.97;1.87;;;;;;;19.96;71.51;100374.69;6035236;28;20038;-67
2022/06/19 00:23:37;;;;;;;4.25;1.73;;;;;;;20.05;70.98;100359.94;6031337;28;20030;-67
2022/06/19 00:26:32;;;;;;;4.50;2.00;;;;;;;20.07;70.75;100365.91;6029207;28;20132;-67
2022/06/19 00:29:28;;;;;;;3.23;1.60;;;;;;;19.91;71.41;100366.41;6029382;28;20039;-67
2022/06/19 00:32:25;;;;;;;4.25;2.00;;;;;;;19.76;72.00;100347.03;6028474;28;20042;-67
2022/06/19 00:35:21;;;;;;;3.80;2.00;;;;;;;19.65;72.20;100339.63;6026641;28;20236;-67
2022/06/19 00:38:16;;;;;;;7.43;1.90;;;;;;;19.73;72.29;100336.69;6031179;28;20067;-67
2022/06/19 00:41:11;;;;;;;3.42;1.80;;;;;;;19.79;71.38;100317.00;6028380;28;20105;-67
2022/06/19 00:44:09;;;;;;;4.97;2.00;;;;;;;19.88;71.84;100322.94;6031076;28;20049;-67
2022/06/19 00:47:25;;;;;;;4.18;1.70;;;;;;;19.67;71.82;100318.72;6027661;28;20402;-67
2022/06/19 00:50:33;;;;;;;2.88;1.52;;;;;;;19.52;72.42;100310.94;6026841;28;20092;-67
2022/06/19 00:53:38;;;;;;;3.97;1.73;;;;;;;19.44;72.90;100299.56;6030709;28;20027;-67
2022/06/19 00:56:33;;;;;;;2.85;1.60;;;;;;;19.49;72.65;100307.81;6046939;28;20026;-67
2022/06/19 00:59:29;;;;;;;3.20;1.55;;;;;;;19.43;72.84;100292.56;6028531;28;20096;-67
2022/06/19 01:02:25;;;;;;;3.50;1.90;;;;;;;19.33;73.10;100284.06;6031086;28;20057;-67
2022/06/19 01:05:21;;;;;;;3.38;1.52;;;;;;;19.22;73.46;100276.66;6030789;28;20029;-67
2022/06/19 01:08:17;;;;;;;7.18;1.90;;;;;;;19.35;73.87;100268.56;6032572;28;20437;-67
2022/06/19 01:11:12;;;;;;;2.75;1.67;;;;;;;19.41;73.03;100273.94;6028242;28;20085;-67
2022/06/19 01:14:10;;;;;;;3.70;2.20;;;;;;;19.32;73.20;100269.78;6029173;28;20497;-67
2022/06/19 01:17:07;;;;;;;5.80;2.00;;;;;;;19.40;73.44;100256.16;6028809;28;20498;-67
2022/06/19 01:20:05;;;;;;;3.70;1.67;;;;;;;19.45;72.88;100263.59;6027428;28;20038;-67
2022/06/19 01:23:26;;;;;;;5.57;2.00;;;;;;;19.28;73.34;100251.63;6026729;28;20133;-67
2022/06/19 01:26:22;;;;;;;5.55;1.90;;;;;;;19.18;73.83;100246.72;6027594;28;20034;-67
2022/06/19 01:29:19;;;;;;;3.83;2.10;;;;;;;19.09;74.28;100252.53;6029658;28;20026;-67
2022/06/19 01:32:14;;;;;;;3.65;1.80;;;;;;;19.12;74.53;100244.88;6028106;28;20100;-67
2022/06/19 01:35:10;;;;;;;7.07;2.00;;;;;;;19.25;73.75;100252.03;6042682;28;20030;-67
2022/06/19 01:38:10;;;;;;;4.70;1.70;;;;;;;19.33;73.79;100241.06;6027322;28;20277;-67
2022/06/19 01:41:10;;;;;;;3.17;1.63;;;;;;;19.28;73.59;100235.50;6026942;28;21324;-67
2022/06/19 01:44:05;;;;;;;4.50;1.77;;;;;;;19.54;73.78;100235.41;6025370;28;20471;-67
2022/06/19 01:47:01;;;;;;;7.70;1.92;;;;;;;19.37;73.38;100218.09;6027047;28;20042;-67
2022/06/19 01:49:57;;;;;;;4.72;2.15;;;;;;;19.37;73.54;100221.59;6043370;28;20042;-67
2022/06/19 01:52:58;;;;;;;3.83;1.90;;;;;;;19.24;73.56;100207.41;6025261;28;20034;-67
2022/06/19 01:55:54;;;;;;;4.65;1.80;;;;;;;19.25;73.84;100198.28;6026948;28;20041;-67
2022/06/19 01:58:52;;;;;;;6.80;2.20;;;;;;;19.37;73.59;100196.56;6030754;28;20385;-67
2022/06/19 02:01:47;;;;;;;4.95;1.90;;;;;;;19.30;73.51;100196.59;6025333;28;20030;-67
2022/06/19 02:04:44;;;;;;;3.05;1.90;;;;;;;19.22;74.04;100193.31;6026254;28;20532;-67
2022/06/19 02:07:39;;;;;;;4.68;1.85;;;;;;;19.09;74.51;100204.16;6027614;28;20042;-67
2022/06/19 02:10:37;;;;;;;2.93;1.70;;;;;;;19.19;74.34;100185.69;6027701;28;20041;-67
2022/06/19 02:13:34;;;;;;;3.60;1.67;;;;;;;19.15;74.30;100177.25;6026159;28;20135;-67
2022/06/19 02:16:29;;;;;;;3.58;1.58;;;;;;;19.14;74.08;100169.38;6025649;28;20076;-67
2022/06/19 02:19:24;;;;;;;3.65;1.50;;;;;;;19.09;74.47;100188.00;6028513;28;20421;-67
2022/06/19 02:22:20;;;;;;;5.87;2.10;;;;;;;19.05;74.12;100171.50;6027975;28;20030;-67
2022/06/19 02:25:16;;;;;;;3.85;1.70;;;;;;;19.03;74.71;100163.66;6026373;28;20037;-67
2022/06/19 02:28:12;;;;;;;4.05;1.80;;;;;;;18.85;75.03;100166.22;6029398;28;20049;-67
2022/06/19 02:31:08;;;;;;;5.75;1.80;;;;;;;18.84;74.87;100158.34;6025196;28;20045;-67
2022/06/19 02:34:12;;;;;;;5.75;2.10;;;;;;;18.93;74.75;100162.47;6026694;28;20070;-67
2022/06/19 02:37:17;;;;;;;5.28;1.60;;;;;;;18.97;74.42;100143.00;6028146;28;20494;-67
2022/06/19 02:40:31;;;;;;;3.38;2.33;;;;;;;18.91;74.14;100160.00;6025412;28;20042;-67
2022/06/19 02:43:30;;;;;;;3.13;1.88;;;;;;;18.79;75.04;100142.88;6026958;28;20687;-67
2022/06/19 02:46:25;;;;;;;4.85;1.92;;;;;;;18.98;73.68;100138.44;6027081;28;20109;-67
2022/06/19 02:49:20;;;;;;;5.07;2.63;;;;;;;18.95;74.04;100138.88;6026170;28;20042;-67
2022/06/19 02:52:15;;;;;;;3.67;1.83;;;;;;;19.01;73.63;100135.34;6025902;28;20037;-67
2022/06/19 02:55:11;;;;;;;3.17;1.80;;;;;;;18.80;74.09;100123.06;6026544;28;20042;-67
2022/06/19 02:58:06;;;;;;;3.10;1.70;;;;;;;18.70;74.70;100121.81;6025745;28;20458;-67
2022/06/19 03:01:02;;;;;;;3.13;2.05;;;;;;;18.53;74.69;100124.19;6024179;28;20077;-67
2022/06/19 03:03:57;;;;;;;3.93;1.97;;;;;;;18.32;75.66;100127.09;6028149;28;20032;-67
2022/06/19 03:06:54;;;;;;;3.30;1.93;;;;;;;18.20;75.79;100121.56;6027091;28;20046;-67
2022/06/19 03:09:50;;;;;;;2.75;1.80;;;;;;;18.12;76.12;100118.28;6025360;28;20470;-67
2022/06/19 03:12:46;;;;;;;3.60;1.80;;;;;;;18.15;76.02;100117.84;6027428;28;20097;-67
2022/06/19 03:15:41;;;;;;;4.03;1.60;;;;;;;18.05;76.94;100118.28;6025965;28;20398;-67
2022/06/19 03:18:38;;;;;;;4.70;1.88;;;;;;;18.02;76.78;100099.09;6027062;28;20065;-67
2022/06/19 03:21:34;;;;;;;3.95;1.63;;;;;;;18.14;76.06;100092.03;6025787;28;20031;-66
2022/06/19 03:24:29;;;;;;;4.22;2.00;;;;;;;18.05;76.32;100082.56;6024885;28;20493;-67
2022/06/19 03:27:25;;;;;;;5.30;2.40;;;;;;;17.99;75.91;100078.84;6027658;28;20390;-67
2022/06/19 03:30:21;;;;;;;6.40;2.40;;;;;;;18.00;76.97;100074.31;6025783;28;20375;-67
2022/06/19 03:33:16;;;;;;;4.13;2.28;;;;;;;17.99;75.85;100076.16;6025668;28;20437;-67
2022/06/19 03:36:14;;;;;;;4.20;1.80;;;;;;;18.04;75.64;100068.34;6024861;28;20050;-67
2022/06/19 03:39:10;;;;;;;7.13;2.25;;;;;;;17.81;76.55;100065.28;6029585;28;20513;-67
2022/06/19 03:42:07;;;;;;;3.40;2.13;;;;;;;17.94;76.69;100061.75;6030792;28;20062;-67
2022/06/19 03:45:03;;;;;;;3.92;2.03;;;;;;;18.10;75.72;100066.69;6031162;28;20113;-67
2022/06/19 03:47:58;;;;;;;2.75;1.77;;;;;;;17.94;75.49;100064.44;6029371;28;20068;-68
2022/06/19 03:50:54;;;;;;;4.55;1.73;;;;;;;17.84;75.48;100059.50;6030950;28;20038;-67
2022/06/19 03:53:52;;;;;;;2.60;1.52;;;;;;;17.87;75.58;100053.72;6027009;28;20038;-67
2022/06/19 03:56:48;;;;;;;4.25;1.85;;;;;;;17.99;75.51;100053.91;6028688;28;20068;-67
2022/06/19 03:59:43;;;;;;;4.03;1.60;;;;;;;17.97;75.31;100043.38;6035879;28;20046;-67
2022/06/19 04:02:38;;;;;;;5.57;1.60;;;;;;;18.05;75.43;100040.44;6026447;28;20398;-67
2022/06/19 04:05:34;;;;;;;3.00;1.73;;;;;;;18.07;74.91;100032.22;6027251;28;20061;-67
2022/06/19 04:08:29;;;;;;;3.40;1.80;;;;;;;18.11;74.84;100011.94;6035977;28;20312;-67
2022/06/19 04:11:26;;;;;;;4.60;1.80;;;;;;;17.94;75.87;100008.09;6029173;28;20670;-67
2022/06/19 04:14:21;;;;;;;5.85;1.60;;;;;;;17.89;76.28;100013.25;6028818;28;20034;-67
2022/06/19 04:17:16;;;;;;;4.07;1.60;;;;;;;17.92;76.09;99992.19;6027140;28;20401;-67
2022/06/19 04:20:12;;;;;;;3.60;1.50;;;;;;;18.08;75.63;99996.25;6034306;28;20674;-67
2022/06/19 04:23:09;;;;;;;2.92;1.35;;;;;;;18.24;74.54;99998.47;6028224;28;20062;-67
2022/06/19 04:26:09;;;;;;;8.27;1.75;;;;;;;18.45;74.03;100011.63;6025776;28;20045;-67
2022/06/19 04:29:05;;;;;;;5.13;1.60;;;;;;;18.30;73.86;100001.13;6027614;28;20076;-67
2022/06/19 04:32:01;;;;;;;2.60;1.50;;;;;;;18.35;74.41;100005.84;6040233;28;20458;-67
2022/06/19 04:34:56;;;;;;;2.65;1.50;;;;;;;18.71;72.78;100002.59;6026549;28;20493;-67
2022/06/19 04:37:52;;;;;;;3.20;1.70;;;;;;;18.68;72.28;99995.81;6033493;28;20112;-67
2022/06/19 04:40:48;;;;;;;2.42;1.50;;;;;;;18.97;71.22;99997.88;6032628;28;20042;-67
2022/06/19 04:43:43;;;;;;;4.90;2.00;;;;;;;18.90;71.93;99997.09;6032785;28;20037;-67
2022/06/19 04:46:39;;;;;;;3.17;1.67;;;;;;;18.69;72.58;99984.03;6034642;28;20286;-67
2022/06/19 04:49:34;;;;;;;4.22;2.08;;;;;;;18.78;72.08;99988.09;6035493;28;20056;-67
2022/06/19 04:52:29;;;;;;;2.97;1.97;;;;;;;19.18;71.72;99977.06;6043904;28;20034;-67
2022/06/19 04:55:25;;;;;;;2.60;1.90;;;;;;;19.21;71.02;99966.69;6035130;28;20288;-67
2022/06/19 04:58:24;;;;;;;3.20;1.92;;;;;;;19.62;70.14;99962.59;6032077;28;20121;-67
2022/06/19 05:01:28;;;;;;;3.47;1.85;;;;;;;19.48;70.27;99951.97;6026646;28;20097;-67
2022/06/19 05:04:23;;;;;;;4.13;1.70;;;;;;;19.96;69.47;99973.59;6034504;28;20393;-67
2022/06/19 05:07:18;;;;;;;3.60;2.10;;;;;;;19.70;69.58;100018.81;6028245;28;20052;-67
2022/06/19 05:10:14;;;;;;;3.28;1.58;;;;;;;19.14;72.09;100040.34;6030871;28;20037;-67
2022/06/19 05:13:15;;;;;;;5.47;1.80;;;;;;;19.38;72.08;100020.75;6030490;28;20027;-67
2022/06/19 05:16:16;;;;;;;3.45;1.50;;;;;;;20.38;68.25;99995.28;6035643;28;20041;-67
2022/06/19 05:19:12;;;;;;;3.25;1.52;;;;;;;20.22;67.91;99987.78;6029491;28;20146;-67
2022/06/19 05:22:07;;;;;;;6.70;1.60;;;;;;;20.59;66.66;100017.16;6045705;28;20036;-67
2022/06/19 05:25:08;;;;;;;4.40;1.70;;;;;;;20.41;67.34;100046.00;6041724;28;20292;-66
2022/06/19 05:28:04;;;;;;;4.03;1.63;;;;;;;20.91;66.01;100017.72;6036990;28;20040;-67
2022/06/19 05:30:59;;;;;;;2.53;1.60;;;;;;;21.43;64.17;100020.69;6036366;28;20057;-67
2022/06/19 05:33:55;;;;;;;3.65;1.70;;;;;;;20.89;65.53;100046.81;6031579;28;20540;-67
2022/06/19 05:36:50;;;;;;;7.45;2.13;;;;;;;20.18;67.71;100049.34;6029287;28;20118;-66
2022/06/19 05:39:45;;;;;;;2.83;1.40;;;;;;;20.60;67.10;100043.03;6032537;28;20033;-67
2022/06/19 05:42:41;;;;;;;4.53;1.50;;;;;;;21.24;65.19;100023.47;6029183;28;20274;-67
2022/06/19 05:45:36;;;;;;;3.00;1.80;;;;;;;21.08;64.62;100028.72;6028853;28;20297;-67
2022/06/19 05:48:32;;;;;;;2.30;1.50;;;;;;;21.66;63.31;100040.38;6040682;28;20026;-66
2022/06/19 05:51:27;;;;;;;2.75;1.80;;;;;;;21.53;63.28;100029.00;6031190;28;20285;-67
2022/06/19 05:54:22;;;;;;;3.88;2.10;;;;;;;21.72;62.49;100022.44;6037020;28;20040;-67
2022/06/19 05:57:19;;;;;;;4.10;2.03;;;;;;;21.84;62.29;100012.47;6028919;28;20038;-67
2022/06/19 06:00:14;;;;;;;5.25;1.75;;;;;;;21.81;62.15;100029.13;6026050;28;20042;-67
2022/06/19 06:03:19;;;;;;;2.60;1.80;;;;;;;21.60;62.82;100021.63;6027554;28;20050;-67
2022/06/19 06:06:20;;;;;;;4.20;1.83;;;;;;;22.18;61.84;99984.59;6029725;28;20525;-67
2022/06/19 06:09:15;;;;;;;2.60;1.35;;;;;;;22.78;60.06;100009.31;6031233;28;20440;-66
2022/06/19 06:12:11;;;;;;;4.60;1.73;;;;;;;22.43;60.46;100000.50;6026789;28;20042;-67
2022/06/19 06:15:06;;;;;;;4.57;1.90;;;;;;;22.33;61.34;100011.94;6022543;28;20034;-67
2022/06/19 06:18:02;;;;;;;4.78;1.75;;;;;;;22.43;59.81;100027.50;6028371;28;20273;-66
2022/06/19 06:21:03;;;;;;;4.32;1.95;;;;;;;22.26;59.71;99999.59;6029178;28;20116;-67
2022/06/19 06:23:58;;;;;;;4.60;1.70;;;;;;;22.27;60.67;100045.31;6026077;28;20034;-66
2022/06/19 06:26:53;;;;;;;4.17;1.77;;;;;;;22.06;60.88;100016.22;6027586;28;20088;-67
2022/06/19 06:29:49;;;;;;;3.57;1.63;;;;;;;22.06;61.57;100054.03;6024346;28;20029;-67
2022/06/19 06:32:44;;;;;;;2.88;1.63;;;;;;;22.49;60.01;100013.88;6028248;28;20084;-67
2022/06/19 06:35:39;;;;;;;2.67;1.60;;;;;;;22.38;59.99;100041.75;6021579;28;20038;-67
2022/06/19 06:38:35;;;;;;;4.20;1.80;;;;;;;22.47;60.85;100047.59;6023552;28;20110;-66
2022/06/19 06:41:31;;;;;;;3.80;1.98;;;;;;;22.11;60.85;100050.63;6028961;28;20034;-67
2022/06/19 06:44:26;;;;;;;3.28;2.00;;;;;;;22.50;59.40;100053.34;6024383;28;20510;-66
2022/06/19 06:47:21;;;;;;;4.93;1.80;;;;;;;22.18;60.70;100057.53;6024379;28;20061;-66
2022/06/19 06:50:17;;;;;;;4.65;2.13;;;;;;;22.24;61.03;100053.88;6027157;28;20376;-67
2022/06/19 06:53:12;;;;;;;4.82;2.13;;;;;;;22.27;60.11;100056.09;6031381;28;20066;-67
2022/06/19 06:56:08;;;;;;;2.85;1.70;;;;;;;21.43;62.24;100074.63;6027802;28;20053;-67
2022/06/19 06:59:03;;;;;;;5.20;1.90;;;;;;;21.22;63.15;100073.31;6026897;28;20030;-67
2022/06/19 07:01:59;;;;;;;4.70;1.90;;;;;;;22.20;60.58;100049.19;6026406;28;20274;-67
2022/06/19 07:04:55;;;;;;;5.35;2.10;;;;;;;22.00;59.17;100046.88;6027370;28;20127;-68
2022/06/19 07:07:50;;;;;;;6.15;2.20;;;;;;;21.92;60.09;100037.25;6036384;28;20030;-66
2022/06/19 07:10:46;;;;;;;6.23;1.80;;;;;;;21.87;59.67;100061.47;6035152;28;20109;-67
2022/06/19 07:13:41;;;;;;;5.80;1.87;;;;;;;22.49;58.04;100062.53;6030540;28;20038;-67
2022/06/19 07:16:36;;;;;;;4.78;2.03;;;;;;;22.48;57.64;100041.94;6035713;28;20037;-67
2022/06/19 07:19:32;;;;;;;5.63;2.25;;;;;;;22.51;56.90;100040.66;6026673;28;20046;-67
2022/06/19 07:22:28;;;;;;;6.50;2.55;;;;;;;22.92;56.11;100047.69;6031668;28;20038;-66
2022/06/19 07:25:23;;;;;;;6.47;1.88;;;;;;;23.15;54.04;100036.75;6044614;28;20041;-67
2022/06/19 07:28:18;;;;;;;5.70;2.28;;;;;;;23.22;54.91;100026.56;6029641;28;20809;-67
2022/06/19 07:31:14;;;;;;;9.70;2.10;;;;;;;22.99;53.61;100037.56;6033292;28;20049;-67
2022/06/19 07:34:09;;;;;;;7.05;2.05;;;;;;;23.47;53.01;100034.31;6032374;28;20400;-67
2022/06/19 07:37:05;;;;;;;5.60;2.20;;;;;;;23.91;52.38;100027.13;6035888;28;20034;-67
2022/06/19 07:40:01;;;;;;;7.40;2.72;;;;;;;23.77;52.22;100050.22;6029664;28;20120;-66
2022/06/19 07:42:56;;;;;;;7.53;2.10;;;;;;;23.53;52.13;100055.00;6026977;28;20084;-67
2022/06/19 07:45:52;;;;;;;4.65;1.92;;;;;;;23.46;52.12;100049.75;6029483;28;20022;-67
2022/06/19 07:52:01;;;;;;;5.57;2.10;;;;;;;23.45;52.50;100050.00;6027450;28;20034;-67
2022/06/19 07:54:57;;;;;;;6.87;1.80;;;;;;;23.39;52.67;100048.28;6027526;28;20042;-67
2022/06/19 07:57:53;;;;;;;7.03;1.75;;;;;;;23.39;52.15;100040.16;6027864;28;20038;-67
2022/06/19 08:00:48;;;;;;;4.85;1.90;;;;;;;23.64;52.20;100043.28;6037262;28;20049;-67
2022/06/19 08:03:43;;;;;;;9.52;2.40;;;;;;;23.46;52.36;100055.16;6028064;28;20057;-66
2022/06/19 08:06:39;;;;;;;6.20;2.10;;;;;;;23.96;50.53;100043.47;6025942;28;20382;-67
2022/06/19 08:09:34;;;;;;;9.43;2.45;;;;;;;23.39;52.32;100051.81;6028048;28;20707;-66
2022/06/19 08:12:29;;;;;;;7.53;2.17;;;;;;;23.85;51.63;100042.50;6025162;28;20038;-66
2022/06/19 08:15:25;;;;;;;8.40;2.60;;;;;;;23.31;52.01;100060.31;6026319;28;20453;-67
2022/06/19 08:18:21;;;;;;;8.18;2.53;;;;;;;23.65;51.53;100059.25;6024710;28;20053;-67
2022/06/19 08:21:16;;;;;;;6.50;2.87;;;;;;;23.60;52.69;100077.31;6025090;28;20034;-66
2022/06/19 08:24:11;;;;;;;7.77;2.40;;;;;;;23.36;52.14;100073.91;6036130;28;20097;-67
2022/06/19 08:27:07;;;;;;;9.57;2.50;;;;;;;23.98;51.14;100068.41;6033853;28;20049;-67
2022/06/19 08:30:05;;;;;;;6.70;2.72;;;;;;;24.01;51.07;100035.41;6025290;28;20113;-67
2022/06/19 08:33:01;;;;;;;7.43;2.45;;;;;;;24.41;49.26;100022.38;6034637;28;20048;-68
2022/06/19 08:35:59;;;;;;;4.65;2.42;;;;;;;24.55;48.15;100026.34;6028553;28;20042;-67
2022/06/19 08:38:59;;;;;;;5.28;2.17;;;;;;;24.59;49.14;100046.50;6037622;28;20034;-67
2022/06/19 08:42:26;;;;;;;5.97;2.25;;;;;;;25.13;49.22;100020.22;6033127;28;20504;-67
2022/06/19 08:45:35;;;;;;;6.00;2.05;;;;;;;25.19;46.56;100026.50;6041026;28;20038;-67
2022/06/19 08:49:07;;;;;;;8.93;2.50;;;;;;;24.70;48.95;100040.09;6030704;28;20042;-67
2022/06/19 08:52:19;;;;;;;6.55;2.35;;;;;;;25.62;46.43;100034.47;6044401;28;20038;-67
2022/06/19 08:55:35;;;;;;;8.07;2.83;;;;;;;24.74;48.31;100071.06;6035709;28;20041;-67
2022/06/19 08:58:54;;;;;;;7.20;2.90;;;;;;;25.11;48.54;100068.47;6048832;28;20050;-67
2022/06/19 09:01:59;;;;;;;9.63;3.13;;;;;;;24.84;50.56;100100.22;6030491;28;20158;-67
2022/06/19 09:08:49;;;;;;;7.22;2.80;;;;;;;25.56;48.67;100108.03;6031544;28;20034;-67
2022/06/19 09:12:10;;;;;;;6.85;2.45;;;;;;;25.82;46.76;100110.66;6027597;28;20114;-67
2022/06/19 09:15:13;;;;;;;8.48;3.15;;;;;;;26.14;45.41;100099.81;6049578;28;20069;-67
2022/06/19 09:18:18;;;;;;;10.90;2.75;;;;;;;25.79;47.26;100094.88;6042919;28;20398;-67
2022/06/19 09:21:28;;;;;;;6.10;2.83;;;;;;;25.32;48.55;100102.09;6028518;28;20117;-67
2022/06/19 09:24:26;;;;;;;9.18;2.80;;;;;;;25.17;49.10;100115.50;6029110;28;20420;-66
2022/06/19 09:27:28;;;;;;;11.23;3.03;;;;;;;25.05;49.22;100112.94;6035859;28;20027;-67
2022/06/19 09:30:30;;;;;;;9.43;2.70;;;;;;;25.05;49.73;100120.25;6047360;28;20454;-67
2022/06/19 09:33:41;;;;;;;11.70;3.10;;;;;;;25.09;48.99;100129.50;6054810;28;20429;-67
2022/06/19 09:36:40;;;;;;;7.63;3.10;;;;;;;25.70;48.70;100134.50;6044312;28;20034;-67
2022/06/19 09:39:47;;;;;;;6.88;2.70;;;;;;;25.65;47.61;100130.94;6029096;28;20038;-67
2022/06/19 09:42:54;;;;;;;8.65;3.08;;;;;;;25.75;47.12;100150.00;6043874;28;20038;-67
2022/06/19 09:45:56;;;;;;;8.60;2.72;;;;;;;25.93;48.37;100166.75;6026882;28;20076;-67
2022/06/19 09:49:01;;;;;;;9.80;2.95;;;;;;;25.84;48.16;100175.66;6026193;28;20474;-67
2022/06/19 09:52:05;;;;;;;13.15;2.67;;;;;;;25.51;48.30;100198.44;6029121;28;20088;-67
2022/06/19 09:55:09;;;;;;;13.25;2.65;;;;;;;25.40;48.24;100212.94;6041286;28;20473;-67
2022/06/19 09:58:12;;;;;;;10.10;3.42;;;;;;;25.15;48.73;100231.66;6027172;28;20486;-67
2022/06/19 10:01:07;;;;;;;10.80;3.25;;;;;;;24.93;49.22;100228.09;6028839;28;20034;-67
2022/06/19 10:04:07;;;;;;;9.95;3.08;;;;;;;25.02;47.84;100218.47;6027761;28;20034;-67
2022/06/19 10:07:08;;;;;;;13.52;3.13;;;;;;;24.97;49.35;100234.69;6028723;28;20042;-67
2022/06/19 10:10:24;;;;;;;12.57;2.85;;;;;;;25.47;47.48;100232.59;6025506;28;20038;-67
2022/06/19 10:13:35;;;;;;;8.18;2.95;;;;;;;25.52;47.14;100212.84;6042924;28;20046;-67
2022/06/19 10:16:54;;;;;;;9.73;2.92;;;;;;;25.77;47.55;100197.59;6047617;28;20065;-66
2022/06/19 10:20:12;;;;;;;7.50;2.50;;;;;;;26.25;46.96;100209.44;6026158;28;20037;-67
2022/06/19 10:23:55;;;;;;;8.65;2.83;;;;;;;25.87;46.89;100203.09;6029315;28;20505;-67
2022/06/19 10:27:08;;;;;;;11.40;2.92;;;;;;;25.90;47.61;100196.34;6028120;28;20053;-67
2022/06/19 10:30:07;;;;;;;11.07;3.10;;;;;;;25.73;46.90;100201.09;6046759;28;20466;-67
2022/06/19 10:33:21;;;;;;;9.45;2.88;;;;;;;25.67;47.79;100207.53;6031506;28;20065;-68
2022/06/19 10:36:36;;;;;;;7.15;2.38;;;;;;;25.87;47.43;100197.66;6038994;28;20384;-66
2022/06/19 10:40:05;;;;;;;8.45;2.67;;;;;;;25.97;46.22;100203.22;6027616;28;20118;-67
2022/06/19 10:43:30;;;;;;;15.38;3.25;;;;;;;25.94;46.08;100217.31;6024988;28;20089;-67
2022/06/19 10:46:47;;;;;;;14.50;2.95;;;;;;;26.11;45.97;100235.38;6034977;28;20030;-67
2022/06/19 10:49:55;;;;;;;10.07;3.20;;;;;;;26.15;45.26;100215.59;6054199;28;20521;-67
2022/06/19 10:53:14;;;;;;;9.32;3.10;;;;;;;26.28;46.14;100236.09;6019772;28;20391;-67
2022/06/19 10:56:33;;;;;;;10.30;3.42;;;;;;;26.07;46.31;100256.00;6023117;28;20038;-67
2022/06/19 10:59:29;;;;;;;11.25;2.92;;;;;;;25.99;45.64;100247.25;6050636;28;20379;-68
2022/06/19 11:05:48;;;;;;;9.43;2.90;;;;;;;25.82;44.74;100241.09;6026998;28;20050;-67
2022/06/19 11:08:51;;;;;;;10.50;2.55;;;;;;;25.59;44.37;100243.31;6030809;28;20029;-67
2022/06/19 11:11:48;;;;;;;6.25;2.28;;;;;;;25.33;44.83;100239.44;6047808;28;20026;-67
2022/06/19 11:14:55;;;;;;;11.25;2.65;;;;;;;25.64;43.72;100236.03;6025942;28;20474;-67
2022/06/19 11:18:13;;;;;;;10.70;2.78;;;;;;;25.63;44.02;100236.31;6024857;28;20036;-67
2022/06/19 11:21:18;;;;;;;8.32;2.58;;;;;;;25.88;43.08;100240.06;6027132;28;20114;-67
2022/06/19 11:24:26;;;;;;;9.57;3.95;;;;;;;26.03;42.87;100245.66;6030848;28;20087;-67
2022/06/19 11:27:24;;;;;;;7.25;2.65;;;;;;;25.86;43.76;100239.53;6015987;28;20052;-67
2022/06/19 11:30:32;;;;;;;10.30;3.63;;;;;;;26.08;42.96;100235.91;6030980;28;20540;-67
2022/06/19 11:33:27;;;;;;;10.63;4.20;;;;;;;26.16;42.33;100249.03;6034208;28;20175;-67
2022/06/19 11:36:38;;;;;;;9.87;2.60;;;;;;;26.02;43.15;100237.75;6025071;28;20462;-67
2022/06/19 11:39:37;;;;;;;12.27;3.35;;;;;;;25.90;43.45;100239.84;6016336;28;20039;-67
2022/06/19 11:42:37;;;;;;;9.23;3.63;;;;;;;25.74;43.81;100236.13;6031215;28;20042;-67
2022/06/19 11:45:35;;;;;;;9.07;3.33;;;;;;;25.51;44.18;100208.47;6032042;28;20037;-67
2022/06/19 11:48:31;;;;;;;18.27;9.23;;;;;;;26.00;44.19;100191.81;6053733;28;20520;-67
2022/06/19 11:51:29;;;;;;;9.95;4.20;;;;;;;25.75;43.91;100196.22;6030522;28;20030;-67
2022/06/19 11:54:29;;;;;;;42.22;26.38;;;;;;;26.00;44.79;100194.53;6025194;28;20425;-67
2022/06/19 11:57:28;;;;;;;39.03;23.05;;;;;;;25.93;44.20;100185.75;6018854;28;20030;-67
2022/06/19 12:00:26;;;;;;;;;;;;;;;25.67;45.62;100183.91;6026919;28;20038;-67
2022/06/19 12:03:36;;;;;;;9.57;2.80;;;;;;;26.27;44.07;100151.00;6053687;28;19917;-67
2022/06/19 12:06:38;;;;;;;11.98;3.25;;;;;;;26.25;43.37;100171.38;6021361;28;20031;-67
2022/06/19 12:09:35;;;;;;;12.00;3.38;;;;;;;26.14;43.67;100166.94;6024713;28;20116;-67
2022/06/19 12:12:33;;;;;;;13.02;4.28;;;;;;;26.52;42.50;100144.88;6039561;28;20038;-67
2022/06/19 12:15:33;;;;;;;9.88;3.28;;;;;;;26.66;42.65;100128.88;6021835;28;20863;-67
2022/06/19 12:18:32;;;;;;;8.02;3.45;;;;;;;26.78;42.79;100159.44;6040992;28;20532;-67
2022/06/19 12:21:38;;;;;;;8.65;3.10;;;;;;;27.50;39.67;100145.78;6029319;28;20434;-68
2022/06/19 12:24:42;;;;;;;7.25;2.78;;;;;;;27.60;40.49;100168.41;6063316;28;20045;-68
2022/06/19 12:27:47;;;;;;;12.40;3.75;;;;;;;27.75;40.50;100167.59;6038666;28;20075;-67
2022/06/19 12:30:56;;;;;;;10.43;2.63;;;;;;;27.64;40.37;100174.16;6027373;28;20038;-67
2022/06/19 12:34:06;;;;;;;11.45;2.72;;;;;;;27.34;40.77;100168.63;6029062;28;20102;-67
2022/06/19 12:37:01;;;;;;;7.85;2.80;;;;;;;27.61;40.63;100166.50;6031344;28;20042;-67
2022/06/19 12:39:56;;;;;;;15.70;7.37;;;;;;;27.77;39.00;100149.06;6024078;28;20049;-67
2022/06/19 12:43:00;;;;;;;123.30;91.53;;;;;;;28.15;39.74;100159.44;6025976;28;20103;-67
2022/06/19 12:45:58;;;;;;;10.57;3.33;;;;;;;27.98;39.84;100169.78;6027825;28;20628;-67
2022/06/19 12:49:11;;;;;;;10.65;3.35;;;;;;;27.67;39.99;100159.97;6034791;28;20042;-67
2022/06/19 12:52:34;;;;;;;10.55;5.20;;;;;;;27.10;41.70;100163.63;6025910;28;20038;-67
2022/06/19 12:55:43;;;;;;;10.25;4.93;;;;;;;26.94;41.75;100178.28;6028226;28;20046;-67
2022/06/19 12:59:20;;;;;;;8.10;2.78;;;;;;;26.57;42.96;100219.19;6029599;28;20130;-67
2022/06/19 13:02:29;;;;;;;20.60;11.80;;;;;;;26.07;43.83;100145.38;6043133;28;20516;-67
2022/06/19 13:06:02;;;;;;;9.18;2.95;;;;;;;25.61;46.97;100024.69;6027909;28;20085;-67
2022/06/19 13:09:15;;;;;;;10.35;2.97;;;;;;;25.35;50.70;100107.00;6030179;28;20060;-68
2022/06/19 13:12:24;;;;;;;11.80;3.53;;;;;;;25.18;54.62;100117.13;6028628;28;20478;-67
2022/06/19 13:15:35;;;;;;;18.08;3.17;;;;;;;25.07;52.52;100126.25;6028990;28;20034;-67
2022/06/19 13:19:01;;;;;;;8.32;2.83;;;;;;;25.59;52.68;100131.94;6029851;28;20392;-68
2022/06/19 13:22:27;;;;;;;10.10;3.22;;;;;;;26.31;49.65;100124.91;6029389;28;20093;-67
2022/06/19 13:25:40;;;;;;;13.35;2.88;;;;;;;26.65;47.07;100133.50;6027486;28;20510;-68
2022/06/19 13:29:01;;;;;;;9.00;2.90;;;;;;;27.14;44.70;100121.19;6036102;28;20034;-67
2022/06/19 13:32:00;;;;;;;8.85;2.65;;;;;;;27.47;44.09;100119.09;6022993;28;20121;-67
2022/06/19 13:35:32;;;;;;;11.40;2.90;;;;;;;27.94;41.64;100129.72;6032107;28;20120;-67
2022/06/19 13:38:40;;;;;;;11.98;2.67;;;;;;;28.59;40.14;100136.97;6022137;28;20056;-67
2022/06/19 13:41:56;;;;;;;8.43;3.20;;;;;;;28.33;40.26;100139.75;6036540;28;20029;-68
2022/06/19 13:44:54;;;;;;;9.80;2.80;;;;;;;28.90;39.48;100143.94;6028089;28;20144;-67
2022/06/19 13:47:55;;;;;;;6.43;2.65;;;;;;;28.96;38.42;100147.47;6027237;28;20032;-67
2022/06/19 13:51:04;;;;;;;6.25;2.72;;;;;;;28.41;39.25;100178.47;6033879;28;20437;-67
2022/06/19 13:54:20;;;;;;;8.80;3.10;;;;;;;28.52;38.79;100175.44;6025013;28;20049;-67
2022/06/19 13:57:25;;;;;;;7.55;2.90;;;;;;;28.01;39.99;100190.22;6025045;28;20528;-67
2022/06/19 14:00:28;;;;;;;10.85;2.75;;;;;;;28.33;39.74;100199.78;6024984;28;20038;-67
2022/06/19 14:03:23;;;;;;;8.35;2.95;;;;;;;28.39;38.92;100202.50;6040434;28;20045;-67
2022/06/19 14:06:26;;;;;;;7.30;2.90;;;;;;;27.38;40.21;100186.03;6032623;28;20030;-67
2022/06/19 14:09:52;;;;;;;10.00;3.53;;;;;;;26.77;42.28;100204.84;6026182;28;20418;-67